createdAt,value
2018-07-14T00:02:05.418Z,59.98
2018-07-14T00:04:36.108Z,59.74
2018-07-14T00:07:07.008Z,59.83
2018-07-14T00:09:37.712Z,60.46
2018-07-14T00:12:08.434Z,60.23
2018-07-14T00:14:39.111Z,60.12
2018-07-14T00:17:09.779Z,59.94
2018-07-14T00:19:40.546Z,60.48
2018-07-14T00:22:11.262Z,60.96
2018-07-14T00:24:41.994Z,60.56
2018-07-14T00:27:12.664Z,60.83
2018-07-14T00:29:43.406Z,60.86
2018-07-14T00:32:14.111Z,61.34
2018-07-14T00:34:44.812Z,61.17
2018-07-14T00:37:15.475Z,61.37
2018-07-14T00:39:46.307Z,61.57
2018-07-14T00:42:16.981Z,62.10
2018-07-14T00:44:47.692Z,61.99
2018-07-14T00:47:18.378Z,62.30
2018-07-14T00:49:49.088Z,62.75
2018-07-14T00:52:19.798Z,62.92
2018-07-14T00:54:50.441Z,62.57
2018-07-14T00:57:21.154Z,63.36
2018-07-14T00:59:51.855Z,63.42
2018-07-14T01:02:22.495Z,63.72
2018-07-14T01:04:53.156Z,63.45
2018-07-14T01:07:23.778Z,63.92
2018-07-14T01:09:54.490Z,63.75
2018-07-14T01:12:25.172Z,63.47
2018-07-14T01:15:26.779Z,63.74
2018-07-14T01:17:57.493Z,63.83
2018-07-14T01:20:28.326Z,63.17
2018-07-14T01:22:58.982Z,63.68
2018-07-14T01:25:29.687Z,64.03
2018-07-14T01:28:00.444Z,64.01
2018-07-14T01:30:31.226Z,64.18
2018-07-14T01:33:01.862Z,63.88
2018-07-14T01:35:32.541Z,64.20
2018-07-14T01:38:03.247Z,64.45
2018-07-14T01:40:33.927Z,64.58
2018-07-14T01:43:04.729Z,65.46
2018-07-14T01:45:35.490Z,65.37
2018-07-14T01:48:06.373Z,66.00
2018-07-14T01:50:37.105Z,65.83
2018-07-14T01:53:08.132Z,66.27
2018-07-14T01:55:38.904Z,66.42
2018-07-14T01:58:09.535Z,67.05
2018-07-14T02:00:40.215Z,66.47
2018-07-14T02:03:10.955Z,66.71
2018-07-14T02:05:41.615Z,66.85
2018-07-14T02:08:12.268Z,66.98
2018-07-14T02:10:43.000Z,67.21
2018-07-14T02:13:13.689Z,67.60
2018-07-14T02:15:44.342Z,67.88
2018-07-14T02:18:15.046Z,68.14
2018-07-14T02:20:45.709Z,68.40
2018-07-14T02:23:16.387Z,68.08
2018-07-14T02:25:49.957Z,68.26
2018-07-14T02:28:20.604Z,68.44
2018-07-14T02:30:51.286Z,68.89
2018-07-14T02:33:21.927Z,68.84
2018-07-14T02:35:52.628Z,69.04
2018-07-14T02:38:23.336Z,69.10
2018-07-14T02:40:54.103Z,69.07
2018-07-14T02:43:24.810Z,69.32
2018-07-14T02:46:26.124Z,69.63
2018-07-14T02:48:56.818Z,69.56
2018-07-14T02:51:27.478Z,69.11
2018-07-14T02:53:58.160Z,69.36
2018-07-14T02:56:28.783Z,69.44
2018-07-14T02:58:59.444Z,69.65
2018-07-14T03:01:30.089Z,69.40
2018-07-14T03:04:00.772Z,69.75
2018-07-14T03:06:31.435Z,69.45
2018-07-14T03:09:02.140Z,69.88
2018-07-14T03:11:32.825Z,69.71
2018-07-14T03:14:04.475Z,70.11
2018-07-14T03:16:35.229Z,70.52
2018-07-14T03:19:05.940Z,70.16
2018-07-14T03:21:36.705Z,70.37
2018-07-14T03:24:07.559Z,70.69
2018-07-14T03:26:38.659Z,70.52
2018-07-14T03:29:09.357Z,70.61
2018-07-14T03:31:40.135Z,70.51
2018-07-14T03:34:10.804Z,71.10
2018-07-14T03:36:41.556Z,71.13
2018-07-14T03:39:12.323Z,71.57
2018-07-14T03:41:43.020Z,71.53
2018-07-14T03:44:13.664Z,71.11
2018-07-14T03:46:44.348Z,71.45
2018-07-14T03:49:14.981Z,71.51
2018-07-14T03:51:45.651Z,71.73
2018-07-14T03:54:16.320Z,71.87
2018-07-14T03:56:47.161Z,71.92
2018-07-14T03:59:17.787Z,71.33
2018-07-14T04:01:48.524Z,71.05
2018-07-14T04:04:19.204Z,71.46
2018-07-14T04:06:56.371Z,70.96
2018-07-14T04:09:27.072Z,71.73
2018-07-14T04:11:57.803Z,72.33
2018-07-14T04:14:28.519Z,71.87
2018-07-14T04:16:59.212Z,71.40
2018-07-14T04:19:29.886Z,71.46
2018-07-14T04:22:00.558Z,71.47
2018-07-14T04:24:31.323Z,71.47
2018-07-14T04:27:01.998Z,71.13
2018-07-14T04:29:32.727Z,71.87
2018-07-14T04:32:03.571Z,71.80
2018-07-14T04:34:34.178Z,72.24
2018-07-14T04:37:04.841Z,71.92
2018-07-14T04:39:35.503Z,71.84
2018-07-14T04:42:06.206Z,71.47
2018-07-14T04:44:36.873Z,71.87
2018-07-14T04:47:07.578Z,71.12
2018-07-14T04:49:38.224Z,71.22
2018-07-14T04:52:08.964Z,71.30
2018-07-14T04:54:39.650Z,71.46
2018-07-14T04:57:10.316Z,70.50
2018-07-14T04:59:40.742Z,70.47
2018-07-14T05:02:11.305Z,70.42
2018-07-14T05:04:42.074Z,70.76
2018-07-14T05:07:12.756Z,71.12
2018-07-14T05:09:43.505Z,70.15
2018-07-14T05:12:14.232Z,70.17
2018-07-14T05:14:44.953Z,69.71
2018-07-14T05:17:15.578Z,70.09
2018-07-14T05:19:46.327Z,69.63
2018-07-14T05:22:17.106Z,69.36
2018-07-14T05:24:47.794Z,68.65
2018-07-14T05:27:18.441Z,68.38
2018-07-14T05:29:49.239Z,68.39
2018-07-14T05:32:19.916Z,67.99
2018-07-14T05:34:50.553Z,67.93
2018-07-14T05:37:21.227Z,67.83
2018-07-14T05:39:51.956Z,67.37
2018-07-14T05:42:22.656Z,67.05
2018-07-14T05:44:53.287Z,67.51
2018-07-14T05:47:23.981Z,67.53
2018-07-14T05:49:54.657Z,67.09
2018-07-14T05:52:25.378Z,66.95
2018-07-14T05:54:56.091Z,66.55
2018-07-14T05:57:26.765Z,66.01
2018-07-14T05:59:57.435Z,66.21
2018-07-14T06:02:28.173Z,66.38
2018-07-14T06:04:58.860Z,67.04
2018-07-14T06:07:29.508Z,67.25
2018-07-14T06:10:00.153Z,67.65
2018-07-14T06:12:30.864Z,67.92
2018-07-14T06:15:01.520Z,67.75
2018-07-14T06:17:32.208Z,67.31
2018-07-14T06:20:02.880Z,66.35
2018-07-14T06:22:33.539Z,65.87
2018-07-14T06:25:04.255Z,65.92
2018-07-14T06:27:34.922Z,65.55
2018-07-14T06:30:07.844Z,65.76
2018-07-14T06:32:38.583Z,65.75
2018-07-14T06:35:09.363Z,65.65
2018-07-14T06:37:40.054Z,65.31
2018-07-14T06:40:10.751Z,64.31
2018-07-14T06:42:41.495Z,63.83
2018-07-14T06:45:12.226Z,63.14
2018-07-14T06:47:42.875Z,62.70
2018-07-14T06:50:13.560Z,61.81
2018-07-14T06:52:44.262Z,61.28
2018-07-14T06:55:14.944Z,60.46
2018-07-14T06:57:45.654Z,60.34
2018-07-14T07:00:16.343Z,60.36
2018-07-14T07:02:47.346Z,59.21
2018-07-14T07:05:18.051Z,58.75
2018-07-14T07:07:48.815Z,58.96
2018-07-14T07:10:19.456Z,58.57
2018-07-14T07:12:50.126Z,57.49
2018-07-14T07:15:20.808Z,57.56
2018-07-14T07:17:51.487Z,56.67
2018-07-14T07:20:22.319Z,56.42
2018-07-14T07:22:53.414Z,55.67
2018-07-14T07:25:24.112Z,55.60
2018-07-14T07:27:54.884Z,54.77
2018-07-14T07:30:25.651Z,54.21
2018-07-14T07:32:56.383Z,53.96
2018-07-14T07:35:27.043Z,53.66
2018-07-14T07:37:57.852Z,53.08
2018-07-14T07:40:28.530Z,52.84
2018-07-14T07:42:59.253Z,52.06
2018-07-14T07:45:29.962Z,52.17
2018-07-14T07:48:00.600Z,51.55
2018-07-14T07:51:02.309Z,51.00
2018-07-14T07:53:32.966Z,51.66
2018-07-14T07:56:03.677Z,51.00
2018-07-14T07:58:34.330Z,50.91
2018-07-14T08:01:05.875Z,49.28
2018-07-14T08:03:36.679Z,49.40
2018-07-14T08:06:08.303Z,48.65
2018-07-14T08:08:39.047Z,47.84
2018-07-14T08:11:09.742Z,47.95
2018-07-14T08:13:40.414Z,47.03
2018-07-14T08:16:11.120Z,46.49
2018-07-14T08:18:41.758Z,46.12
2018-07-14T08:21:12.454Z,45.38
2018-07-14T08:23:43.200Z,45.18
2018-07-14T08:26:13.837Z,44.55
2018-07-14T08:28:44.493Z,44.85
2018-07-14T08:31:15.174Z,45.16
2018-07-14T08:33:45.918Z,43.79
2018-07-14T08:36:16.562Z,43.85
2018-07-14T08:38:47.476Z,43.75
2018-07-14T08:41:18.176Z,43.94
2018-07-14T08:43:49.129Z,43.16
2018-07-14T08:46:19.769Z,42.05
2018-07-14T08:48:50.635Z,42.83
2018-07-14T08:51:21.306Z,41.99
2018-07-14T08:53:52.003Z,41.71
2018-07-14T08:56:22.702Z,41.12
2018-07-14T08:58:53.351Z,41.43
2018-07-14T09:01:24.055Z,41.87
2018-07-14T09:03:54.759Z,40.29
2018-07-14T09:06:25.413Z,40.08
2018-07-14T09:08:56.147Z,39.54
2018-07-14T09:11:26.816Z,40.67
2018-07-14T09:13:57.509Z,40.10
2018-07-14T09:16:28.226Z,39.42
2018-07-14T09:18:58.887Z,39.44
2018-07-14T09:21:29.539Z,39.88
2018-07-14T09:24:00.233Z,38.77
2018-07-14T09:26:30.895Z,38.42
2018-07-14T09:29:01.605Z,38.05
2018-07-14T09:31:32.249Z,37.71
2018-07-14T09:34:02.604Z,37.83
2018-07-14T09:36:33.103Z,38.01
2018-07-14T09:39:05.132Z,37.51
2018-07-14T09:41:35.790Z,37.05
2018-07-14T09:44:06.554Z,36.25
2018-07-14T09:46:37.186Z,36.95
2018-07-14T09:49:07.960Z,36.84
2018-07-14T09:51:38.787Z,36.29
2018-07-14T09:54:09.418Z,35.77
2018-07-14T09:56:40.099Z,35.50
2018-07-14T09:59:10.784Z,34.31
2018-07-14T10:01:41.435Z,34.62
2018-07-14T10:04:12.078Z,34.40
2018-07-14T10:06:42.861Z,34.70
2018-07-14T10:09:13.584Z,35.33
2018-07-14T10:11:44.248Z,34.65
2018-07-14T10:14:14.931Z,35.14
2018-07-14T10:16:45.591Z,34.89
2018-07-14T10:19:16.232Z,34.72
2018-07-14T10:21:46.597Z,34.87
2018-07-14T10:24:17.140Z,34.36
2018-07-14T10:26:47.923Z,35.24
2018-07-14T10:29:18.588Z,33.63
2018-07-14T10:31:49.306Z,34.66
2018-07-14T10:34:19.937Z,33.66
2018-07-14T10:36:50.656Z,33.94
2018-07-14T10:39:21.330Z,33.87
2018-07-14T10:41:52.145Z,33.77
2018-07-14T10:44:22.492Z,33.23
2018-07-14T10:46:53.250Z,32.54
2018-07-14T10:49:23.929Z,32.65
2018-07-14T10:51:54.774Z,32.27
2018-07-14T10:54:25.460Z,31.38
2018-07-14T10:56:56.171Z,31.41
2018-07-14T10:59:26.477Z,31.88
2018-07-14T11:01:57.077Z,30.40
2018-07-14T11:04:27.808Z,30.41
2018-07-14T11:06:58.511Z,29.99
2018-07-14T11:09:29.168Z,30.62
2018-07-14T11:11:59.890Z,31.01
2018-07-14T11:14:30.585Z,31.10
2018-07-14T11:17:01.592Z,30.86
2018-07-14T11:19:32.272Z,30.64
2018-07-14T11:22:03.002Z,29.52
2018-07-14T11:24:33.764Z,30.02
2018-07-14T11:27:04.499Z,31.25
2018-07-14T11:29:35.433Z,30.92
2018-07-14T11:32:06.245Z,29.09
2018-07-14T11:34:37.110Z,28.91
2018-07-14T11:37:07.879Z,28.17
2018-07-14T11:39:38.746Z,29.52
2018-07-14T11:42:09.502Z,29.69
2018-07-14T11:44:40.255Z,29.79
2018-07-14T11:47:11.007Z,30.57
2018-07-14T11:49:41.708Z,27.95
2018-07-14T11:52:12.443Z,28.62
2018-07-14T11:54:43.197Z,28.21
2018-07-14T11:57:13.959Z,28.24
2018-07-14T11:59:44.677Z,29.08
2018-07-14T12:02:15.412Z,29.16
2018-07-14T12:04:46.234Z,29.02
2018-07-14T12:07:16.979Z,29.75
2018-07-14T12:09:47.685Z,28.39
2018-07-14T12:12:18.495Z,28.34
2018-07-14T12:14:49.258Z,28.79
2018-07-14T12:17:19.987Z,28.54
2018-07-14T12:19:50.728Z,27.48
2018-07-14T12:22:21.421Z,28.57
2018-07-14T12:24:52.233Z,26.69
2018-07-14T12:27:24.062Z,27.13
2018-07-14T12:29:54.735Z,27.35
2018-07-14T12:32:25.532Z,28.03
2018-07-14T12:34:56.242Z,26.16
2018-07-14T12:37:27.468Z,26.73
2018-07-14T12:39:58.341Z,28.53
2018-07-14T12:42:29.035Z,27.49
2018-07-14T12:44:59.894Z,27.33
2018-07-14T12:47:30.612Z,26.99
2018-07-14T12:50:01.306Z,28.85
2018-07-14T12:52:32.045Z,28.36
2018-07-14T12:55:02.740Z,28.56
2018-07-14T12:57:33.549Z,26.47
2018-07-14T13:00:04.583Z,25.71
2018-07-14T13:02:35.335Z,25.75
2018-07-14T13:05:06.392Z,25.66
2018-07-14T13:07:37.141Z,24.08
2018-07-14T13:10:08.952Z,26.60
2018-07-14T13:12:39.792Z,26.45
2018-07-14T13:15:10.520Z,26.84
2018-07-14T13:17:41.176Z,26.51
2018-07-14T13:20:11.867Z,27.35
2018-07-14T13:22:42.581Z,26.88
2018-07-14T13:25:13.254Z,24.80
2018-07-14T13:27:43.987Z,24.97
2018-07-14T13:30:15.464Z,25.38
2018-07-14T13:32:46.293Z,24.44
2018-07-14T13:35:16.953Z,24.93
2018-07-14T13:37:54.276Z,24.02
2018-07-14T13:40:24.981Z,24.30
2018-07-14T13:42:55.667Z,22.54
2018-07-14T13:45:26.433Z,22.34
2018-07-14T13:47:57.145Z,22.47
2018-07-14T13:50:27.872Z,22.68
2018-07-14T13:52:58.635Z,23.24
2018-07-14T13:55:29.280Z,23.54
2018-07-14T13:58:00.191Z,23.64
2018-07-14T14:00:30.920Z,22.70
2018-07-14T14:03:01.735Z,22.96
2018-07-14T14:05:32.454Z,23.10
2018-07-14T14:08:03.343Z,22.56
2018-07-14T14:10:34.010Z,22.57
2018-07-14T14:13:04.868Z,22.68
2018-07-14T14:15:35.569Z,24.16
2018-07-14T14:18:06.620Z,23.29
2018-07-14T14:20:37.377Z,22.35
2018-07-14T14:23:08.102Z,22.73
2018-07-14T14:25:38.860Z,22.91
2018-07-14T14:28:09.944Z,23.42
2018-07-14T14:30:40.652Z,23.60
2018-07-14T14:33:11.408Z,24.36
2018-07-14T14:35:42.089Z,22.74
2018-07-14T14:38:12.792Z,23.13
2018-07-14T14:40:43.534Z,22.30
2018-07-14T14:43:14.241Z,22.73
2018-07-14T14:45:44.958Z,23.30
2018-07-14T14:48:15.755Z,23.05
2018-07-14T14:50:46.506Z,22.84
2018-07-14T14:53:17.219Z,23.94
2018-07-14T14:55:47.920Z,24.10
2018-07-14T14:58:18.528Z,24.68
2018-07-14T15:00:49.406Z,23.58
2018-07-14T15:03:20.188Z,24.44
2018-07-14T15:05:50.927Z,24.07
2018-07-14T15:08:21.673Z,24.68
2018-07-14T15:10:52.403Z,23.39
2018-07-14T15:13:23.188Z,22.87
2018-07-14T15:15:54.034Z,22.54
2018-07-14T15:18:25.536Z,23.82
2018-07-14T15:20:56.316Z,22.31
2018-07-14T15:23:27.113Z,23.11
2018-07-14T15:25:57.963Z,23.06
2018-07-14T15:28:28.842Z,22.56
2018-07-14T15:30:59.612Z,22.88
2018-07-14T15:33:30.388Z,23.42
2018-07-14T15:36:01.212Z,23.76
2018-07-14T15:38:31.975Z,23.56
2018-07-14T15:41:02.780Z,23.06
2018-07-14T15:43:33.596Z,22.94
2018-07-14T15:46:04.520Z,23.44
2018-07-14T15:48:35.330Z,24.26
2018-07-14T15:51:06.195Z,24.99
2018-07-14T15:53:37.081Z,24.41
2018-07-14T15:56:07.962Z,24.52
2018-07-14T15:58:39.295Z,24.39
2018-07-14T16:01:10.082Z,24.88
2018-07-14T16:03:40.825Z,24.55
2018-07-14T16:06:11.608Z,25.48
2018-07-14T16:08:42.412Z,25.15
2018-07-14T16:11:13.260Z,26.08
2018-07-14T16:13:44.254Z,25.58
2018-07-14T16:16:14.897Z,26.63
2018-07-14T16:18:45.920Z,25.94
2018-07-14T16:21:16.687Z,26.75
2018-07-14T16:23:47.508Z,27.06
2018-07-14T16:26:18.217Z,26.81
2018-07-14T16:28:48.952Z,27.24
2018-07-14T16:31:19.561Z,26.55
2018-07-14T16:33:50.335Z,28.06
2018-07-14T16:36:21.079Z,28.13
2018-07-14T16:38:51.870Z,28.37
2018-07-14T16:41:22.760Z,28.51
2018-07-14T16:43:53.573Z,28.10
2018-07-14T16:46:24.483Z,28.46
2018-07-14T16:48:55.354Z,28.37
2018-07-14T16:51:26.047Z,29.04
2018-07-14T16:53:56.781Z,29.15
2018-07-14T16:56:27.475Z,29.54
2018-07-14T16:58:58.227Z,28.98
2018-07-14T17:01:29.043Z,29.59
2018-07-14T17:03:59.771Z,29.07
2018-07-14T17:06:30.484Z,29.60
2018-07-14T17:09:01.192Z,29.03
2018-07-14T17:11:31.892Z,29.66
2018-07-14T17:14:02.686Z,29.31
2018-07-14T17:16:33.347Z,29.71
2018-07-14T17:19:04.231Z,29.75
2018-07-14T17:21:34.956Z,30.29
2018-07-14T17:24:05.862Z,30.09
2018-07-14T17:26:36.566Z,29.90
2018-07-14T17:29:07.371Z,30.18
2018-07-14T17:31:38.082Z,30.55
2018-07-14T17:34:08.851Z,30.15
2018-07-14T17:36:39.523Z,29.98
2018-07-14T17:39:17.591Z,31.21
2018-07-14T17:41:48.405Z,31.04
2018-07-14T17:44:19.109Z,30.47
2018-07-14T17:46:50.111Z,30.44
2018-07-14T17:49:20.792Z,30.60
2018-07-14T17:51:51.498Z,30.61
2018-07-14T17:54:22.231Z,31.10
2018-07-14T17:56:52.926Z,31.50
2018-07-14T17:59:23.584Z,31.17
2018-07-14T18:01:54.282Z,31.60
2018-07-14T18:04:24.964Z,32.15
2018-07-14T18:06:55.679Z,31.98
2018-07-14T18:09:26.038Z,32.31
2018-07-14T18:11:56.647Z,32.08
2018-07-14T18:14:27.327Z,32.07
2018-07-14T18:16:57.628Z,32.12
2018-07-14T18:19:28.170Z,33.08
2018-07-14T18:21:58.865Z,32.68
2018-07-14T18:24:29.594Z,33.41
2018-07-14T18:27:00.277Z,33.32
2018-07-14T18:29:31.697Z,33.24
2018-07-14T18:32:02.364Z,33.91
2018-07-14T18:34:33.101Z,32.96
2018-07-14T18:37:03.770Z,33.31
2018-07-14T18:39:34.471Z,33.56
2018-07-14T18:42:05.399Z,33.66
2018-07-14T18:44:36.062Z,33.62
2018-07-14T18:47:06.837Z,33.47
2018-07-14T18:49:37.659Z,34.10
2018-07-14T18:52:08.594Z,35.15
2018-07-14T18:54:39.238Z,34.89
2018-07-14T18:57:10.017Z,35.07
2018-07-14T18:59:40.455Z,34.91
2018-07-14T19:02:11.160Z,34.80
2018-07-14T19:04:41.864Z,35.72
2018-07-14T19:07:12.803Z,35.67
2018-07-14T19:09:43.441Z,35.26
2018-07-14T19:12:14.330Z,35.76
2018-07-14T19:14:45.019Z,35.96
2018-07-14T19:17:15.878Z,36.81
2018-07-14T19:19:46.559Z,36.94
2018-07-14T19:22:17.447Z,37.10
2018-07-14T19:24:48.192Z,37.51
2018-07-14T19:27:18.935Z,37.80
2018-07-14T19:29:50.054Z,38.90
2018-07-14T19:32:20.732Z,37.69
2018-07-14T19:34:51.547Z,38.35
2018-07-14T19:37:22.222Z,39.16
2018-07-14T19:39:52.992Z,39.97
2018-07-14T19:42:23.663Z,39.69
2018-07-14T19:44:54.458Z,39.04
2018-07-14T19:47:25.123Z,40.04
2018-07-14T19:49:55.859Z,39.91
2018-07-14T19:52:26.688Z,40.02
2018-07-14T19:54:57.573Z,40.15
2018-07-14T19:57:28.406Z,40.60
2018-07-14T20:00:01.017Z,40.60
2018-07-14T20:02:31.671Z,40.78
2018-07-14T20:05:02.398Z,40.75
2018-07-14T20:07:33.184Z,41.24
2018-07-14T20:10:04.011Z,41.37
2018-07-14T20:12:34.643Z,41.49
2018-07-14T20:15:05.615Z,41.16
2018-07-14T20:17:36.325Z,42.05
2018-07-14T20:20:08.910Z,42.26
2018-07-14T20:22:39.959Z,42.75
2018-07-14T20:25:10.678Z,42.89
2018-07-14T20:27:41.503Z,43.61
2018-07-14T20:30:12.235Z,43.45
2018-07-14T20:32:42.951Z,44.01
2018-07-14T20:35:13.746Z,43.77
2018-07-14T20:37:44.423Z,44.70
2018-07-14T20:40:15.144Z,45.38
2018-07-14T20:42:45.893Z,44.74
2018-07-14T20:45:16.928Z,46.01
2018-07-14T20:47:47.696Z,45.50
2018-07-14T20:50:18.496Z,46.23
2018-07-14T20:52:49.184Z,45.92
2018-07-14T20:55:20.028Z,46.59
2018-07-14T20:57:50.723Z,46.51
2018-07-14T21:00:21.410Z,46.19
2018-07-14T21:02:52.097Z,45.95
2018-07-14T21:05:22.704Z,46.37
2018-07-14T21:07:53.410Z,45.52
2018-07-14T21:10:24.141Z,46.04
2018-07-14T21:12:54.802Z,45.78
2018-07-14T21:15:25.619Z,46.53
2018-07-14T21:17:56.342Z,45.49
2018-07-14T21:20:27.034Z,45.87
2018-07-14T21:22:57.684Z,45.53
2018-07-14T21:25:28.325Z,46.03
2018-07-14T21:27:59.065Z,46.28
2018-07-14T21:30:29.801Z,46.26
2018-07-14T21:33:00.463Z,46.73
2018-07-14T21:35:31.107Z,46.47
2018-07-14T21:41:03.011Z,46.72
2018-07-14T21:43:34.257Z,46.75
2018-07-14T21:46:05.172Z,47.33
2018-07-14T21:48:35.879Z,46.68
2018-07-14T21:51:06.876Z,46.61
2018-07-14T21:53:37.541Z,46.98
2018-07-14T21:56:08.270Z,47.78
2018-07-14T21:58:38.925Z,47.66
2018-07-14T22:01:14.826Z,47.44
2018-07-14T22:03:45.491Z,47.61
2018-07-14T22:06:16.169Z,47.53
2018-07-14T22:08:46.830Z,47.93
2018-07-14T22:11:17.512Z,47.61
2018-07-14T22:13:48.292Z,48.20
2018-07-14T22:16:18.908Z,48.88
2018-07-14T22:18:49.556Z,49.75
2018-07-14T22:21:20.279Z,49.54
2018-07-14T22:23:50.930Z,49.78
2018-07-14T22:26:21.715Z,49.75
2018-07-14T22:28:52.428Z,49.84
2018-07-14T22:31:23.236Z,50.17
2018-07-14T22:33:53.943Z,50.71
2018-07-14T22:36:25.045Z,50.09
2018-07-14T22:38:55.727Z,50.22
2018-07-14T22:41:26.398Z,50.18
2018-07-14T22:43:57.047Z,50.38
2018-07-14T22:46:27.731Z,50.96
2018-07-14T22:48:58.413Z,50.87
2018-07-14T22:51:29.071Z,51.07
2018-07-14T22:53:59.759Z,51.73
2018-07-14T22:56:30.468Z,52.27
2018-07-14T22:59:01.108Z,52.22
2018-07-14T23:01:31.828Z,52.36
2018-07-14T23:04:02.811Z,52.29
2018-07-14T23:06:33.481Z,52.97
2018-07-14T23:09:04.264Z,53.22
2018-07-14T23:11:34.912Z,53.50
2018-07-14T23:14:05.598Z,53.95
2018-07-14T23:16:36.257Z,53.82
2018-07-14T23:19:06.979Z,54.08
2018-07-14T23:21:38.750Z,54.29
2018-07-14T23:24:09.530Z,54.21
2018-07-14T23:26:40.175Z,54.02
2018-07-14T23:29:10.866Z,54.25
2018-07-14T23:31:41.631Z,54.54
2018-07-14T23:34:12.299Z,54.68
2018-07-14T23:36:42.937Z,54.85
2018-07-14T23:39:13.605Z,55.05
2018-07-14T23:41:44.283Z,54.68
2018-07-14T23:44:14.979Z,54.61
2018-07-14T23:46:45.636Z,55.32
2018-07-14T23:49:16.290Z,55.53
2018-07-14T23:51:46.991Z,55.50
2018-07-14T23:54:17.856Z,55.24
2018-07-14T23:56:48.650Z,54.86
2018-07-14T23:59:19.292Z,55.13
